createdAt,value
2023-03-24T00:54:09.863Z,58.61
2023-03-24T00:56:40.518Z,59.03
2023-03-24T00:59:10.019Z,58.98
2023-03-24T01:01:41.150Z,59.26
2023-03-24T01:04:10.130Z,59.62
2023-03-24T01:12:18.263Z,59.99
2023-03-24T01:14:52.186Z,59.77
2023-03-24T01:17:30.820Z,59.85
2023-03-24T01:20:01.864Z,59.45
2023-03-24T01:22:40.086Z,59.58
2023-03-24T01:25:17.759Z,59.07
2023-03-24T01:28:01.676Z,59.25
2023-03-24T01:30:38.670Z,59.40
2023-03-24T01:33:26.400Z,59.33
2023-03-24T01:36:04.204Z,59.87
2023-03-24T01:38:34.910Z,59.68
2023-03-24T01:41:09.912Z,59.65
2023-03-24T01:43:51.330Z,59.96
2023-03-24T01:46:28.361Z,59.67
2023-03-24T01:49:04.065Z,59.30
2023-03-24T01:51:42.921Z,59.84
2023-03-24T01:54:25.556Z,59.38
2023-03-24T01:57:08.579Z,59.35
2023-03-24T01:59:46.285Z,58.75
2023-03-24T02:02:22.790Z,58.36
2023-03-24T02:05:08.824Z,59.00
2023-03-24T02:07:56.984Z,58.25
2023-03-24T02:10:34.882Z,58.83
2023-03-24T02:13:15.057Z,58.46
2023-03-24T02:16:12.070Z,58.22
2023-03-24T02:22:15.284Z,57.93
2023-03-24T02:25:30.557Z,57.87
2023-03-24T02:28:35.421Z,57.55
2023-03-24T02:31:40.122Z,57.46
2023-03-24T03:49:50.818Z,56.06
2023-03-24T03:52:18.999Z,55.83
2023-03-24T03:54:47.303Z,55.93
2023-03-24T03:57:15.991Z,55.49
2023-03-24T03:59:43.862Z,55.80
2023-03-24T04:02:29.700Z,55.80
2023-03-24T04:05:27.671Z,55.60
2023-03-24T04:08:14.542Z,55.90
2023-03-24T04:11:09.941Z,55.99
2023-03-24T04:13:46.562Z,55.93
2023-03-24T04:16:21.788Z,55.83
2023-03-24T04:19:09.783Z,55.73
2023-03-24T04:21:51.755Z,55.68
2023-03-24T04:24:29.157Z,55.54
2023-03-24T04:27:00.705Z,55.59
2023-03-24T04:29:37.006Z,55.05
2023-03-24T04:32:11.294Z,55.07
2023-03-24T04:34:45.138Z,55.16
2023-03-24T04:37:18.956Z,55.25
2023-03-24T04:39:49.737Z,56.37
2023-03-24T04:42:21.903Z,55.51
2023-03-24T04:44:51.647Z,55.85
2023-03-24T04:47:22.831Z,55.79
2023-03-24T04:49:50.669Z,55.75
2023-03-24T04:52:19.625Z,55.11
2023-03-24T04:54:47.222Z,55.31
2023-03-24T04:57:14.726Z,55.46
2023-03-24T04:59:43.114Z,55.27
2023-03-24T05:02:10.942Z,55.52
2023-03-24T05:04:38.553Z,55.66
2023-03-24T05:07:06.163Z,55.76
2023-03-24T05:09:35.096Z,56.34
2023-03-24T05:12:02.666Z,56.32
2023-03-24T05:14:30.258Z,56.52
2023-03-24T05:16:57.850Z,56.74
2023-03-24T05:19:25.424Z,57.07
2023-03-24T05:21:54.025Z,57.50
2023-03-24T05:24:22.368Z,57.41
2023-03-24T05:26:51.350Z,57.57
2023-03-24T05:29:18.893Z,57.54
2023-03-24T05:31:46.537Z,57.58
2023-03-24T05:34:14.180Z,57.50
2023-03-24T05:36:41.724Z,57.49
2023-03-24T05:39:09.318Z,57.88
2023-03-24T05:41:36.891Z,57.89
2023-03-24T05:44:06.122Z,58.17
2023-03-24T05:46:33.754Z,58.21
2023-03-24T05:49:01.352Z,58.07
2023-03-24T05:51:28.969Z,58.36
2023-03-24T05:53:57.083Z,58.54
2023-03-24T05:56:24.709Z,58.40
2023-03-24T05:58:52.484Z,58.62
2023-03-24T06:01:21.282Z,58.78
2023-03-24T06:03:49.173Z,58.56
2023-03-24T06:06:17.076Z,58.44
2023-03-24T06:08:45.878Z,58.88
2023-03-24T06:11:13.635Z,58.54
2023-03-24T06:13:41.257Z,58.42
2023-03-24T06:16:10.007Z,58.68
2023-03-24T06:18:40.530Z,59.21
2023-03-24T06:21:08.516Z,59.38
2023-03-24T06:23:36.137Z,59.98
2023-03-24T06:26:10.137Z,61.05
2023-03-24T06:28:39.819Z,60.95
2023-03-24T06:31:14.828Z,61.66
2023-03-24T06:33:43.948Z,62.71
2023-03-24T06:36:13.312Z,63.23
2023-03-24T06:38:41.933Z,63.33
2023-03-24T06:41:09.960Z,63.72
2023-03-24T06:43:37.522Z,64.39
2023-03-24T06:46:05.395Z,64.60
2023-03-24T06:48:33.668Z,64.91
2023-03-24T06:51:02.570Z,65.72
2023-03-24T06:53:30.390Z,65.51
2023-03-24T06:55:58.005Z,65.79
2023-03-24T06:58:25.575Z,65.80
2023-03-24T07:00:53.758Z,65.96
2023-03-24T07:03:22.686Z,66.15
2023-03-24T07:05:50.457Z,66.31
2023-03-24T07:08:36.522Z,66.44
2023-03-24T07:11:06.976Z,66.33
2023-03-24T07:13:34.532Z,66.40
2023-03-24T07:16:02.057Z,66.76
2023-03-24T07:18:29.654Z,66.64
2023-03-24T07:20:57.687Z,66.78
2023-03-24T07:23:27.619Z,66.71
2023-03-24T07:25:55.511Z,66.61
2023-03-24T07:28:23.024Z,66.77
2023-03-24T07:30:51.617Z,66.70
2023-03-24T07:33:24.227Z,66.62
2023-03-24T07:35:55.563Z,66.71
2023-03-24T07:38:23.183Z,66.71
2023-03-24T07:40:52.038Z,66.84
2023-03-24T07:43:19.620Z,66.94
2023-03-24T07:45:47.486Z,66.68
2023-03-24T07:48:15.581Z,66.50
2023-03-24T07:50:43.537Z,66.42
2023-03-24T07:53:11.280Z,66.59
2023-03-24T07:55:39.104Z,66.63
2023-03-24T07:58:08.119Z,66.85
2023-03-24T08:00:35.621Z,66.80
2023-03-24T08:03:03.573Z,67.22
2023-03-24T08:05:31.550Z,66.67
2023-03-24T08:08:00.168Z,66.90
2023-03-24T08:10:29.723Z,67.27
2023-03-24T08:12:58.182Z,66.87
2023-03-24T08:15:28.176Z,67.12
2023-03-24T08:17:56.728Z,67.34
2023-03-24T08:20:25.290Z,67.91
2023-03-24T08:22:54.395Z,68.12
2023-03-24T08:25:24.491Z,68.56
2023-03-24T08:27:52.619Z,68.50
2023-03-24T08:30:22.092Z,69.09
2023-03-24T08:32:54.015Z,69.45
2023-03-24T08:35:24.716Z,69.49
2023-03-24T08:37:52.728Z,69.38
2023-03-24T08:40:24.003Z,69.90
2023-03-24T08:42:54.290Z,69.71
2023-03-24T08:45:23.851Z,69.60
2023-03-24T08:47:53.519Z,70.02
2023-03-24T08:50:23.788Z,70.36
2023-03-24T08:52:51.515Z,70.71
2023-03-24T08:55:20.297Z,70.77
2023-03-24T08:57:48.829Z,71.07
2023-03-24T09:00:18.380Z,71.28
2023-03-24T09:02:48.524Z,71.37
2023-03-24T09:05:21.301Z,71.68
2023-03-24T09:07:52.719Z,71.25
2023-03-24T09:10:22.513Z,71.60
2023-03-24T09:12:50.836Z,71.40
2023-03-24T09:15:18.519Z,71.51
2023-03-24T09:17:46.253Z,71.47
2023-03-24T09:20:16.017Z,71.22
2023-03-24T09:22:47.218Z,71.36
2023-03-24T09:25:17.771Z,71.46
2023-03-24T09:27:46.190Z,70.90
2023-03-24T09:30:15.714Z,70.84
2023-03-24T09:32:43.382Z,70.22
2023-03-24T09:35:11.258Z,70.21
2023-03-24T09:37:39.816Z,70.77
2023-03-24T09:40:15.999Z,71.08
2023-03-24T09:42:45.712Z,70.73
2023-03-24T09:45:17.808Z,71.12
2023-03-24T09:47:50.282Z,70.96
2023-03-24T09:50:22.685Z,69.80
2023-03-24T09:52:54.873Z,71.09
2023-03-24T09:55:26.620Z,70.32
2023-03-24T09:57:56.697Z,70.27
2023-03-24T10:00:27.891Z,70.37
2023-03-24T10:03:00.565Z,70.20
2023-03-24T10:05:34.085Z,70.50
2023-03-24T10:08:12.118Z,70.83
2023-03-24T10:10:50.237Z,71.82
2023-03-24T10:13:22.305Z,70.11
2023-03-24T10:15:57.127Z,71.52
2023-03-24T10:18:34.609Z,70.77
2023-03-24T10:21:07.246Z,70.00
2023-03-24T10:23:41.480Z,69.75
2023-03-24T10:26:27.553Z,70.53
2023-03-24T10:29:07.472Z,68.77
2023-03-24T10:31:38.772Z,68.51
2023-03-24T10:34:07.850Z,68.49
2023-03-24T10:36:44.194Z,67.99
2023-03-24T10:39:19.938Z,67.47
2023-03-24T10:41:50.964Z,67.08
2023-03-24T10:44:19.560Z,65.79
2023-03-24T10:46:50.557Z,64.77
2023-03-24T10:49:20.265Z,65.29
2023-03-24T10:51:50.104Z,65.21
2023-03-24T10:54:20.001Z,64.67
2023-03-24T10:56:49.314Z,63.34
2023-03-24T10:59:27.457Z,61.28
2023-03-24T11:02:04.630Z,61.69
2023-03-24T11:04:33.752Z,61.70
2023-03-24T11:07:06.211Z,62.11
2023-03-24T11:09:42.428Z,61.40
2023-03-24T11:12:23.262Z,61.20
2023-03-24T11:14:54.095Z,61.88
2023-03-24T11:17:23.048Z,60.94
2023-03-24T11:19:55.202Z,60.67
2023-03-24T11:22:23.423Z,60.74
2023-03-24T11:24:53.701Z,61.98
2023-03-24T11:27:21.395Z,62.37
2023-03-24T11:29:54.066Z,62.78
2023-03-24T11:32:27.110Z,62.45
2023-03-24T11:35:04.918Z,60.84
2023-03-24T11:37:35.036Z,60.57
2023-03-24T11:40:24.420Z,60.80
2023-03-24T11:42:55.800Z,60.19
2023-03-24T11:45:28.866Z,60.33
2023-03-24T11:47:58.829Z,59.84
2023-03-24T11:50:30.615Z,60.81
2023-03-24T11:53:04.804Z,58.72
2023-03-24T11:55:38.045Z,58.95
2023-03-24T11:58:13.304Z,60.18
2023-03-24T12:00:47.880Z,59.14
2023-03-24T12:03:44.689Z,59.72
2023-03-24T12:06:25.388Z,58.45
2023-03-24T12:09:04.758Z,59.31
2023-03-24T12:11:50.274Z,57.84
2023-03-24T12:14:26.604Z,57.65
2023-03-24T12:17:05.953Z,57.37
2023-03-24T12:19:56.103Z,57.19
2023-03-24T12:22:39.058Z,57.33
2023-03-24T12:25:29.893Z,56.67
2023-03-24T12:28:14.179Z,57.24
2023-03-24T12:30:49.557Z,57.93
2023-03-24T12:33:38.058Z,56.39
2023-03-24T12:36:24.194Z,56.98
2023-03-24T12:39:02.754Z,56.18
2023-03-24T12:41:40.238Z,56.54
2023-03-24T12:44:31.789Z,56.40
2023-03-24T12:47:09.339Z,56.54
2023-03-24T12:49:57.338Z,56.73
2023-03-24T12:52:51.112Z,55.08
2023-03-24T12:55:34.299Z,55.47
2023-03-24T12:58:06.605Z,56.80
2023-03-24T13:00:38.622Z,56.18
2023-03-24T13:03:12.071Z,56.19
2023-03-24T13:05:47.202Z,55.65
2023-03-24T13:08:22.895Z,56.28
2023-03-24T13:10:54.583Z,55.28
2023-03-24T13:13:24.680Z,55.57
2023-03-24T13:15:57.084Z,56.81
2023-03-24T13:18:32.421Z,57.29
2023-03-24T13:21:08.891Z,57.87
2023-03-24T13:23:43.294Z,56.21
2023-03-24T13:26:24.083Z,56.32
2023-03-24T13:29:01.802Z,56.29
2023-03-24T13:31:35.389Z,56.52
2023-03-24T13:34:06.348Z,56.51
2023-03-24T13:36:46.701Z,57.13
2023-03-24T13:39:17.454Z,57.47
2023-03-24T13:41:51.524Z,56.86
2023-03-24T13:44:21.283Z,58.70
2023-03-24T13:47:10.338Z,57.55
2023-03-24T13:49:38.885Z,58.09
2023-03-24T13:52:23.684Z,57.77
2023-03-24T13:55:00.683Z,56.96
2023-03-24T13:57:29.176Z,56.87
2023-03-24T14:00:17.870Z,57.23
2023-03-24T14:02:50.553Z,58.05
2023-03-24T14:05:41.530Z,57.44
2023-03-24T14:08:16.346Z,58.42
2023-03-24T14:10:48.884Z,57.03
2023-03-24T14:13:23.154Z,57.89
2023-03-24T14:15:52.388Z,57.37
2023-03-24T14:18:43.068Z,57.07
2023-03-24T14:21:11.146Z,56.14
2023-03-24T14:23:43.225Z,57.23
2023-03-24T14:26:14.900Z,55.59
2023-03-24T14:28:44.377Z,57.05
2023-03-24T14:31:24.369Z,55.82
2023-03-24T14:34:10.613Z,55.67
2023-03-24T14:36:40.363Z,56.16
2023-03-24T14:39:12.470Z,56.11
2023-03-24T14:41:44.287Z,56.49
2023-03-24T14:44:12.636Z,56.59
2023-03-24T14:46:42.563Z,58.05
2023-03-24T14:49:27.800Z,60.98
2023-03-24T14:51:59.816Z,62.53
2023-03-24T14:54:35.264Z,64.13
2023-03-24T14:57:04.550Z,64.51
2023-03-24T14:59:40.693Z,65.95
2023-03-24T15:02:23.889Z,66.83
2023-03-24T15:05:16.321Z,68.06
2023-03-24T15:07:46.855Z,67.40
2023-03-24T15:10:17.803Z,68.16
2023-03-24T15:12:46.310Z,68.40
2023-03-24T15:15:16.671Z,68.15
2023-03-24T15:17:45.047Z,68.58
2023-03-24T15:20:22.910Z,68.96
2023-03-24T15:22:51.751Z,68.48
2023-03-24T15:25:20.591Z,67.73
2023-03-24T15:27:52.461Z,68.00
2023-03-24T15:30:20.253Z,68.38
2023-03-24T15:32:49.338Z,69.43
2023-03-24T15:35:20.059Z,68.92
2023-03-24T15:37:52.633Z,69.13
2023-03-24T15:40:34.856Z,69.23
2023-03-24T15:43:04.521Z,69.47
2023-03-24T15:45:33.962Z,69.89
2023-03-24T15:48:06.223Z,68.86
2023-03-24T15:50:36.365Z,69.27
2023-03-24T15:53:07.781Z,69.70
2023-03-24T15:55:37.854Z,68.18
2023-03-24T15:58:22.915Z,68.89
2023-03-24T16:00:53.632Z,68.50
2023-03-24T16:03:26.328Z,69.82
2023-03-24T16:05:55.819Z,69.70
2023-03-24T16:08:28.382Z,69.30
2023-03-24T16:11:04.224Z,69.64
2023-03-24T16:13:32.074Z,69.94
2023-03-24T16:16:01.390Z,68.85
2023-03-24T16:18:33.015Z,69.19
2023-03-24T16:21:02.247Z,69.72
2023-03-24T16:23:30.511Z,68.28
2023-03-24T16:25:58.010Z,68.00
2023-03-24T16:28:27.625Z,68.72
2023-03-24T16:31:00.939Z,70.04
2023-03-24T16:33:31.666Z,70.18
2023-03-24T16:35:59.705Z,70.81
2023-03-24T16:38:27.974Z,71.67
2023-03-24T16:40:57.581Z,71.64
2023-03-24T16:43:27.364Z,71.81
2023-03-24T16:45:56.420Z,72.24
2023-03-24T16:48:23.959Z,71.25
2023-03-24T16:50:53.439Z,70.81
2023-03-24T16:53:21.330Z,70.88
2023-03-24T16:55:48.942Z,72.46
2023-03-24T16:58:18.214Z,71.14
2023-03-24T17:00:45.997Z,71.86
2023-03-24T17:03:14.970Z,72.06
2023-03-24T17:05:46.482Z,72.41
2023-03-24T17:08:14.584Z,71.84
2023-03-24T17:10:44.395Z,72.53
2023-03-24T17:13:18.157Z,71.91
2023-03-24T17:15:45.774Z,71.10
2023-03-24T17:18:15.086Z,69.48
2023-03-24T17:20:42.665Z,69.93
2023-03-24T17:23:13.023Z,69.70
2023-03-24T17:25:40.759Z,70.38
2023-03-24T17:28:13.962Z,70.10
2023-03-24T17:30:41.529Z,70.74
2023-03-24T17:33:13.215Z,71.81
2023-03-24T17:35:45.092Z,69.42
2023-03-24T17:38:14.353Z,71.27
2023-03-24T17:40:41.990Z,68.94
2023-03-24T17:43:09.628Z,68.68
2023-03-24T17:45:37.091Z,68.42
2023-03-24T17:48:04.983Z,69.39
2023-03-24T17:50:33.101Z,69.15
2023-03-24T17:53:01.987Z,69.31
2023-03-24T17:55:29.581Z,68.92
2023-03-24T17:57:57.095Z,69.93
2023-03-24T18:00:24.633Z,72.21
2023-03-24T18:02:52.626Z,70.86
2023-03-24T18:05:20.420Z,69.77
2023-03-24T18:07:48.149Z,71.37
2023-03-24T18:10:17.184Z,71.27
2023-03-24T18:12:45.272Z,70.42
2023-03-24T18:15:13.095Z,69.74
2023-03-24T18:17:40.722Z,69.74
2023-03-24T18:20:12.113Z,70.01
2023-03-24T18:22:40.998Z,69.59
2023-03-24T18:25:10.056Z,69.87
2023-03-24T18:27:39.574Z,69.47
2023-03-24T18:30:09.474Z,69.49
2023-03-24T18:32:38.822Z,69.67
2023-03-24T18:35:08.233Z,69.87
2023-03-24T18:37:36.205Z,70.07
2023-03-24T18:40:07.271Z,70.52
2023-03-24T18:42:34.971Z,70.31
2023-03-24T18:45:04.590Z,70.23
2023-03-24T18:47:32.186Z,70.01
2023-03-24T18:49:59.794Z,69.96
2023-03-24T18:52:27.367Z,69.94
2023-03-24T18:54:55.724Z,70.27
2023-03-24T18:57:23.211Z,70.34
2023-03-24T18:59:50.735Z,70.30
2023-03-24T19:02:19.748Z,70.53
2023-03-24T19:04:48.192Z,70.22
2023-03-24T19:07:16.416Z,70.25
2023-03-24T19:09:44.334Z,70.17
2023-03-24T19:12:15.164Z,70.62
2023-03-24T19:14:43.536Z,70.26
2023-03-24T19:17:11.069Z,69.99
2023-03-24T19:19:41.940Z,69.94
2023-03-24T19:22:09.468Z,69.49
2023-03-24T19:24:36.998Z,69.60
2023-03-24T19:27:04.611Z,69.01
2023-03-24T19:29:32.120Z,69.17
2023-03-24T19:31:59.643Z,72.13
2023-03-24T19:34:27.347Z,71.00
2023-03-24T19:36:56.667Z,71.80
2023-03-24T19:39:26.173Z,70.27
2023-03-24T19:41:54.512Z,72.72
2023-03-24T19:44:22.432Z,71.43
2023-03-24T19:46:50.262Z,71.85
2023-03-24T19:49:18.905Z,69.74
2023-03-24T19:51:47.257Z,69.71
2023-03-24T19:54:16.111Z,68.87
2023-03-24T19:56:43.655Z,68.46
2023-03-24T19:59:11.284Z,68.52
2023-03-24T20:01:38.900Z,68.41
2023-03-24T20:04:06.747Z,68.30
2023-03-24T20:06:34.252Z,69.29
2023-03-24T20:09:01.778Z,68.58
2023-03-24T20:11:30.803Z,67.66
2023-03-24T20:13:58.894Z,67.91
2023-03-24T20:16:26.456Z,67.71
2023-03-24T20:18:53.993Z,67.62
2023-03-24T20:21:23.458Z,66.28
2023-03-24T20:23:51.058Z,67.18
2023-03-24T20:26:18.976Z,66.23
2023-03-24T20:28:47.907Z,67.16
2023-03-24T20:31:15.485Z,65.70
2023-03-24T20:33:43.015Z,67.85
2023-03-24T20:36:10.876Z,66.98
2023-03-24T20:38:38.972Z,64.68
2023-03-24T20:41:08.284Z,64.73
2023-03-24T20:43:37.837Z,66.47
2023-03-24T20:46:09.384Z,67.15
2023-03-24T20:48:37.255Z,67.82
2023-03-24T20:51:05.801Z,66.63
2023-03-24T20:53:34.890Z,68.63
2023-03-24T20:56:06.524Z,67.80
2023-03-24T20:58:34.942Z,67.71
2023-03-24T21:01:07.942Z,64.28
2023-03-24T21:03:36.228Z,65.53
2023-03-24T21:06:04.447Z,64.99
2023-03-24T21:08:31.958Z,67.05
2023-03-24T21:11:00.124Z,67.15
2023-03-24T21:13:37.003Z,64.71
2023-03-24T21:16:08.522Z,67.28
2023-03-24T21:18:37.015Z,64.68
2023-03-24T21:21:05.656Z,65.69
2023-03-24T21:23:38.993Z,65.97
2023-03-24T21:26:08.735Z,66.32
2023-03-24T21:28:36.287Z,64.01
2023-03-24T21:31:10.210Z,62.47
2023-03-24T21:33:40.567Z,65.71
2023-03-24T21:36:09.253Z,63.29
2023-03-24T21:38:37.517Z,64.08
2023-03-24T21:41:05.370Z,67.08
2023-03-24T21:43:34.934Z,65.12
2023-03-24T21:46:04.019Z,64.55
2023-03-24T21:48:34.883Z,63.70
2023-03-24T21:51:03.992Z,66.69
2023-03-24T21:53:31.976Z,63.88
2023-03-24T21:56:04.417Z,67.13
2023-03-24T21:58:32.516Z,67.29
2023-03-24T22:01:00.719Z,66.02
2023-03-24T22:03:28.830Z,68.63
2023-03-24T22:05:58.581Z,63.96
2023-03-24T22:08:30.461Z,64.10
2023-03-24T22:10:58.929Z,66.48
2023-03-24T22:13:27.289Z,66.58
2023-03-24T22:15:56.192Z,66.27
2023-03-24T22:18:23.866Z,65.21
2023-03-24T22:20:56.286Z,65.18
2023-03-24T22:23:25.229Z,63.50
2023-03-24T22:25:53.289Z,64.59
2023-03-24T22:28:21.091Z,64.77
2023-03-24T22:30:48.586Z,63.87
2023-03-24T22:33:16.175Z,62.94
2023-03-24T22:35:43.753Z,62.08
2023-03-24T22:38:14.911Z,63.46
2023-03-24T22:40:44.137Z,62.01
2023-03-24T22:43:11.729Z,64.26
2023-03-24T22:45:39.226Z,63.57
2023-03-24T22:48:07.362Z,63.96
2023-03-24T22:50:35.355Z,64.41
2023-03-24T22:53:02.921Z,63.29
2023-03-24T22:55:30.425Z,63.14
2023-03-24T22:57:59.386Z,62.59
2023-03-24T23:00:27.121Z,62.72
2023-03-24T23:02:54.978Z,61.23
2023-03-24T23:05:22.752Z,63.31
2023-03-24T23:07:50.383Z,61.26
2023-03-24T23:10:18.168Z,62.15
2023-03-24T23:12:46.311Z,62.70
2023-03-24T23:15:17.700Z,61.50
2023-03-24T23:17:45.935Z,64.26
2023-03-24T23:20:15.545Z,62.17
2023-03-24T23:22:43.096Z,62.36
2023-03-24T23:25:13.379Z,61.01
2023-03-24T23:27:41.292Z,64.20
2023-03-24T23:30:11.853Z,62.48
2023-03-24T23:32:43.539Z,60.97
2023-03-24T23:35:12.055Z,60.29
2023-03-24T23:37:39.805Z,62.74
2023-03-24T23:40:12.864Z,63.25
2023-03-24T23:42:41.669Z,61.98
2023-03-24T23:45:14.349Z,61.52
2023-03-24T23:47:43.683Z,62.07
2023-03-24T23:50:12.702Z,64.01
2023-03-24T23:52:41.282Z,63.80
2023-03-24T23:55:10.301Z,63.56
2023-03-24T23:57:38.330Z,64.22
